sensor_id;sensor_type;location;lat;lon;timestamp;P1;durP1;ratioP1;P2;durP2;ratioP2
30948;SDS011;17637;51.984;21.208;2022-09-09T00:04:10;12.75;;;7.38;;
30948;SDS011;17637;51.984;21.208;2022-09-09T00:06:45;12.85;;;7.55;;
30948;SDS011;17637;51.984;21.208;2022-09-09T00:13:00;12.43;;;7.28;;
30948;SDS011;17637;51.984;21.208;2022-09-09T00:15:38;12.20;;;7.57;;
30948;SDS011;17637;51.984;21.208;2022-09-09T00:23:37;11.25;;;7.60;;
30948;SDS011;17637;51.984;21.208;2022-09-09T00:26:14;14.93;;;7.43;;
30948;SDS011;17637;51.984;21.208;2022-09-09T00:29:04;11.65;;;7.20;;
30948;SDS011;17637;51.984;21.208;2022-09-09T00:31:43;17.00;;;7.85;;
30948;SDS011;17637;51.984;21.208;2022-09-09T00:34:14;12.77;;;8.60;;
30948;SDS011;17637;51.984;21.208;2022-09-09T00:36:46;12.82;;;8.13;;
30948;SDS011;17637;51.984;21.208;2022-09-09T00:39:27;13.80;;;8.88;;
30948;SDS011;17637;51.984;21.208;2022-09-09T00:44:56;13.55;;;8.57;;
30948;SDS011;17637;51.984;21.208;2022-09-09T00:53:02;14.57;;;8.77;;
30948;SDS011;17637;51.984;21.208;2022-09-09T00:55:55;14.05;;;8.93;;
30948;SDS011;17637;51.984;21.208;2022-09-09T00:58:28;16.15;;;9.70;;
30948;SDS011;17637;51.984;21.208;2022-09-09T01:01:05;14.40;;;9.52;;
30948;SDS011;17637;51.984;21.208;2022-09-09T01:03:38;16.50;;;10.05;;
30948;SDS011;17637;51.984;21.208;2022-09-09T01:11:26;15.13;;;9.98;;
30948;SDS011;17637;51.984;21.208;2022-09-09T01:14:01;16.17;;;9.93;;
30948;SDS011;17637;51.984;21.208;2022-09-09T01:16:55;15.23;;;9.88;;
30948;SDS011;17637;51.984;21.208;2022-09-09T01:25:56;18.88;;;11.57;;
30948;SDS011;17637;51.984;21.208;2022-09-09T01:28:43;20.30;;;11.38;;
30948;SDS011;17637;51.984;21.208;2022-09-09T01:31:14;18.75;;;12.68;;
30948;SDS011;17637;51.984;21.208;2022-09-09T01:33:46;20.85;;;12.52;;
30948;SDS011;17637;51.984;21.208;2022-09-09T01:36:21;19.27;;;11.23;;
30948;SDS011;17637;51.984;21.208;2022-09-09T01:39:04;18.02;;;11.38;;
30948;SDS011;17637;51.984;21.208;2022-09-09T01:41:31;18.80;;;11.75;;
30948;SDS011;17637;51.984;21.208;2022-09-09T01:43:58;18.17;;;11.23;;
30948;SDS011;17637;51.984;21.208;2022-09-09T01:46:25;18.95;;;10.63;;
30948;SDS011;17637;51.984;21.208;2022-09-09T01:48:55;23.73;;;12.32;;
30948;SDS011;17637;51.984;21.208;2022-09-09T01:51:25;18.33;;;12.27;;
30948;SDS011;17637;51.984;21.208;2022-09-09T01:53:52;17.42;;;12.13;;
30948;SDS011;17637;51.984;21.208;2022-09-09T02:04:44;15.85;;;11.35;;
30948;SDS011;17637;51.984;21.208;2022-09-09T02:10:16;17.83;;;12.32;;
30948;SDS011;17637;51.984;21.208;2022-09-09T02:12:53;16.85;;;11.70;;
30948;SDS011;17637;51.984;21.208;2022-09-09T02:15:28;22.42;;;14.40;;
30948;SDS011;17637;51.984;21.208;2022-09-09T02:17:57;19.42;;;12.95;;
30948;SDS011;17637;51.984;21.208;2022-09-09T02:20:28;16.77;;;11.40;;
30948;SDS011;17637;51.984;21.208;2022-09-09T02:23:00;18.13;;;12.68;;
30948;SDS011;17637;51.984;21.208;2022-09-09T02:25:29;15.35;;;11.13;;
30948;SDS011;17637;51.984;21.208;2022-09-09T02:27:56;20.25;;;12.75;;
30948;SDS011;17637;51.984;21.208;2022-09-09T02:30:27;17.92;;;11.50;;
30948;SDS011;17637;51.984;21.208;2022-09-09T02:32:57;18.38;;;12.43;;
30948;SDS011;17637;51.984;21.208;2022-09-09T02:35:28;16.88;;;12.63;;
30948;SDS011;17637;51.984;21.208;2022-09-09T02:37:58;17.08;;;12.27;;
30948;SDS011;17637;51.984;21.208;2022-09-09T02:40:30;21.88;;;12.15;;
30948;SDS011;17637;51.984;21.208;2022-09-09T02:42:57;17.73;;;12.32;;
30948;SDS011;17637;51.984;21.208;2022-09-09T02:45:44;21.25;;;13.20;;
30948;SDS011;17637;51.984;21.208;2022-09-09T02:48:26;18.58;;;12.93;;
30948;SDS011;17637;51.984;21.208;2022-09-09T02:53:40;18.48;;;12.73;;
30948;SDS011;17637;51.984;21.208;2022-09-09T02:56:18;18.55;;;12.27;;
30948;SDS011;17637;51.984;21.208;2022-09-09T02:58:49;18.75;;;14.43;;
30948;SDS011;17637;51.984;21.208;2022-09-09T03:01:18;18.08;;;12.00;;
30948;SDS011;17637;51.984;21.208;2022-09-09T03:03:45;18.67;;;13.13;;
30948;SDS011;17637;51.984;21.208;2022-09-09T03:06:13;16.50;;;11.82;;
30948;SDS011;17637;51.984;21.208;2022-09-09T03:08:40;16.70;;;12.00;;
30948;SDS011;17637;51.984;21.208;2022-09-09T03:11:15;19.08;;;13.05;;
30948;SDS011;17637;51.984;21.208;2022-09-09T03:13:43;17.10;;;12.77;;
30948;SDS011;17637;51.984;21.208;2022-09-09T03:16:10;20.25;;;13.77;;
30948;SDS011;17637;51.984;21.208;2022-09-09T03:18:37;17.30;;;12.05;;
30948;SDS011;17637;51.984;21.208;2022-09-09T03:21:04;16.52;;;11.30;;
30948;SDS011;17637;51.984;21.208;2022-09-09T03:23:31;18.70;;;13.10;;
30948;SDS011;17637;51.984;21.208;2022-09-09T03:25:58;15.45;;;11.73;;
30948;SDS011;17637;51.984;21.208;2022-09-09T03:28:25;16.17;;;12.43;;
30948;SDS011;17637;51.984;21.208;2022-09-09T03:30:58;17.70;;;11.98;;
30948;SDS011;17637;51.984;21.208;2022-09-09T03:33:30;20.35;;;14.13;;
30948;SDS011;17637;51.984;21.208;2022-09-09T03:35:57;18.73;;;13.52;;
30948;SDS011;17637;51.984;21.208;2022-09-09T03:38:24;16.27;;;12.27;;
30948;SDS011;17637;51.984;21.208;2022-09-09T03:40:52;17.15;;;12.43;;
30948;SDS011;17637;51.984;21.208;2022-09-09T03:43:24;15.93;;;12.68;;
30948;SDS011;17637;51.984;21.208;2022-09-09T03:45:52;18.35;;;13.25;;
30948;SDS011;17637;51.984;21.208;2022-09-09T03:48:23;17.60;;;13.93;;
30948;SDS011;17637;51.984;21.208;2022-09-09T03:50:52;15.20;;;11.07;;
30948;SDS011;17637;51.984;21.208;2022-09-09T03:53:21;17.45;;;13.23;;
30948;SDS011;17637;51.984;21.208;2022-09-09T03:55:50;16.40;;;12.82;;
30948;SDS011;17637;51.984;21.208;2022-09-09T03:58:21;14.15;;;11.23;;
30948;SDS011;17637;51.984;21.208;2022-09-09T04:00:57;15.75;;;11.45;;
30948;SDS011;17637;51.984;21.208;2022-09-09T04:03:35;15.88;;;11.88;;
30948;SDS011;17637;51.984;21.208;2022-09-09T04:06:02;13.05;;;10.27;;
30948;SDS011;17637;51.984;21.208;2022-09-09T04:08:31;12.70;;;10.68;;
30948;SDS011;17637;51.984;21.208;2022-09-09T04:10:58;12.90;;;10.43;;
30948;SDS011;17637;51.984;21.208;2022-09-09T04:13:28;16.33;;;12.95;;
30948;SDS011;17637;51.984;21.208;2022-09-09T04:15:56;14.93;;;11.75;;
30948;SDS011;17637;51.984;21.208;2022-09-09T04:18:25;12.43;;;10.52;;
30948;SDS011;17637;51.984;21.208;2022-09-09T04:20:54;15.93;;;11.82;;
30948;SDS011;17637;51.984;21.208;2022-09-09T04:23:25;13.38;;;10.52;;
30948;SDS011;17637;51.984;21.208;2022-09-09T04:28:24;13.98;;;11.80;;
30948;SDS011;17637;51.984;21.208;2022-09-09T04:30:53;14.63;;;11.38;;
30948;SDS011;17637;51.984;21.208;2022-09-09T04:33:20;10.35;;;9.15;;
30948;SDS011;17637;51.984;21.208;2022-09-09T04:35:48;13.77;;;11.02;;
30948;SDS011;17637;51.984;21.208;2022-09-09T04:38:16;12.25;;;9.65;;
30948;SDS011;17637;51.984;21.208;2022-09-09T04:40:47;14.75;;;11.10;;
30948;SDS011;17637;51.984;21.208;2022-09-09T04:43:15;17.55;;;11.73;;
30948;SDS011;17637;51.984;21.208;2022-09-09T04:45:42;14.65;;;10.75;;
30948;SDS011;17637;51.984;21.208;2022-09-09T04:48:10;15.50;;;11.88;;
30948;SDS011;17637;51.984;21.208;2022-09-09T04:50:37;15.63;;;10.93;;
30948;SDS011;17637;51.984;21.208;2022-09-09T04:53:04;15.48;;;11.82;;
30948;SDS011;17637;51.984;21.208;2022-09-09T04:55:32;10.32;;;9.05;;
30948;SDS011;17637;51.984;21.208;2022-09-09T04:58:04;16.35;;;11.65;;
30948;SDS011;17637;51.984;21.208;2022-09-09T05:00:33;12.93;;;10.27;;
30948;SDS011;17637;51.984;21.208;2022-09-09T05:03:03;12.35;;;10.30;;
30948;SDS011;17637;51.984;21.208;2022-09-09T05:05:32;16.65;;;10.95;;
30948;SDS011;17637;51.984;21.208;2022-09-09T05:08:05;12.38;;;9.73;;
30948;SDS011;17637;51.984;21.208;2022-09-09T05:10:34;15.20;;;11.15;;
30948;SDS011;17637;51.984;21.208;2022-09-09T05:13:03;19.97;;;12.47;;
30948;SDS011;17637;51.984;21.208;2022-09-09T05:15:31;12.48;;;10.52;;
30948;SDS011;17637;51.984;21.208;2022-09-09T05:17:58;17.38;;;12.07;;
30948;SDS011;17637;51.984;21.208;2022-09-09T05:20:26;15.95;;;12.57;;
30948;SDS011;17637;51.984;21.208;2022-09-09T05:22:54;17.65;;;12.25;;
30948;SDS011;17637;51.984;21.208;2022-09-09T05:25:23;20.70;;;13.30;;
30948;SDS011;17637;51.984;21.208;2022-09-09T05:30:21;16.25;;;12.38;;
30948;SDS011;17637;51.984;21.208;2022-09-09T05:32:51;13.77;;;10.85;;
30948;SDS011;17637;51.984;21.208;2022-09-09T05:35:18;13.82;;;11.88;;
30948;SDS011;17637;51.984;21.208;2022-09-09T05:37:45;18.90;;;14.52;;
30948;SDS011;17637;51.984;21.208;2022-09-09T05:40:12;18.48;;;13.35;;
30948;SDS011;17637;51.984;21.208;2022-09-09T05:42:40;20.13;;;14.68;;
30948;SDS011;17637;51.984;21.208;2022-09-09T05:45:07;16.80;;;13.95;;
30948;SDS011;17637;51.984;21.208;2022-09-09T05:47:35;15.40;;;12.00;;
30948;SDS011;17637;51.984;21.208;2022-09-09T05:50:04;15.98;;;13.18;;
30948;SDS011;17637;51.984;21.208;2022-09-09T05:52:31;17.60;;;13.68;;
30948;SDS011;17637;51.984;21.208;2022-09-09T05:54:59;18.42;;;14.90;;
30948;SDS011;17637;51.984;21.208;2022-09-09T05:57:26;18.08;;;14.40;;
30948;SDS011;17637;51.984;21.208;2022-09-09T05:59:53;17.85;;;13.38;;
30948;SDS011;17637;51.984;21.208;2022-09-09T06:02:20;16.08;;;12.23;;
30948;SDS011;17637;51.984;21.208;2022-09-09T06:04:47;19.67;;;12.90;;
30948;SDS011;17637;51.984;21.208;2022-09-09T06:07:14;19.73;;;14.68;;
30948;SDS011;17637;51.984;21.208;2022-09-09T06:09:41;19.13;;;14.80;;
30948;SDS011;17637;51.984;21.208;2022-09-09T06:12:08;20.27;;;15.27;;
30948;SDS011;17637;51.984;21.208;2022-09-09T06:14:35;25.25;;;16.35;;
30948;SDS011;17637;51.984;21.208;2022-09-09T06:17:03;14.60;;;11.68;;
30948;SDS011;17637;51.984;21.208;2022-09-09T06:19:34;14.75;;;11.52;;
30948;SDS011;17637;51.984;21.208;2022-09-09T06:22:04;16.90;;;12.63;;
30948;SDS011;17637;51.984;21.208;2022-09-09T06:24:31;17.17;;;13.88;;
30948;SDS011;17637;51.984;21.208;2022-09-09T06:26:59;23.08;;;15.93;;
30948;SDS011;17637;51.984;21.208;2022-09-09T06:29:26;17.38;;;12.82;;
30948;SDS011;17637;51.984;21.208;2022-09-09T06:31:53;21.58;;;14.88;;
30948;SDS011;17637;51.984;21.208;2022-09-09T06:34:20;23.27;;;16.27;;
30948;SDS011;17637;51.984;21.208;2022-09-09T06:36:48;20.92;;;16.27;;
30948;SDS011;17637;51.984;21.208;2022-09-09T06:39:15;18.48;;;14.68;;
30948;SDS011;17637;51.984;21.208;2022-09-09T06:41:42;19.75;;;15.02;;
30948;SDS011;17637;51.984;21.208;2022-09-09T06:44:09;19.73;;;15.45;;
30948;SDS011;17637;51.984;21.208;2022-09-09T06:46:38;14.40;;;10.73;;
30948;SDS011;17637;51.984;21.208;2022-09-09T06:49:07;18.23;;;14.10;;
30948;SDS011;17637;51.984;21.208;2022-09-09T06:51:36;18.38;;;14.43;;
30948;SDS011;17637;51.984;21.208;2022-09-09T06:54:10;18.17;;;13.73;;
30948;SDS011;17637;51.984;21.208;2022-09-09T06:56:39;17.30;;;13.50;;
30948;SDS011;17637;51.984;21.208;2022-09-09T06:59:08;19.92;;;14.77;;
30948;SDS011;17637;51.984;21.208;2022-09-09T07:01:37;14.23;;;12.15;;
30948;SDS011;17637;51.984;21.208;2022-09-09T07:04:07;18.90;;;14.25;;
30948;SDS011;17637;51.984;21.208;2022-09-09T07:06:36;22.08;;;13.65;;
30948;SDS011;17637;51.984;21.208;2022-09-09T07:09:05;14.98;;;11.68;;
30948;SDS011;17637;51.984;21.208;2022-09-09T07:11:37;17.45;;;13.27;;
30948;SDS011;17637;51.984;21.208;2022-09-09T07:14:15;19.05;;;13.00;;
30948;SDS011;17637;51.984;21.208;2022-09-09T07:16:43;20.27;;;15.85;;
30948;SDS011;17637;51.984;21.208;2022-09-09T07:19:12;17.90;;;14.77;;
30948;SDS011;17637;51.984;21.208;2022-09-09T07:21:41;18.27;;;13.80;;
30948;SDS011;17637;51.984;21.208;2022-09-09T07:24:09;15.95;;;12.98;;
30948;SDS011;17637;51.984;21.208;2022-09-09T07:26:39;18.42;;;14.57;;
30948;SDS011;17637;51.984;21.208;2022-09-09T07:29:07;17.45;;;12.50;;
30948;SDS011;17637;51.984;21.208;2022-09-09T07:31:36;15.05;;;12.18;;
30948;SDS011;17637;51.984;21.208;2022-09-09T07:34:04;19.92;;;14.15;;
30948;SDS011;17637;51.984;21.208;2022-09-09T07:36:38;18.08;;;14.55;;
30948;SDS011;17637;51.984;21.208;2022-09-09T07:39:07;18.95;;;13.15;;
30948;SDS011;17637;51.984;21.208;2022-09-09T07:41:37;17.02;;;13.18;;
30948;SDS011;17637;51.984;21.208;2022-09-09T07:44:10;21.10;;;12.88;;
30948;SDS011;17637;51.984;21.208;2022-09-09T07:46:43;16.05;;;12.82;;
30948;SDS011;17637;51.984;21.208;2022-09-09T07:49:12;17.20;;;12.93;;
30948;SDS011;17637;51.984;21.208;2022-09-09T07:51:40;23.92;;;16.55;;
30948;SDS011;17637;51.984;21.208;2022-09-09T07:54:11;25.20;;;16.23;;
30948;SDS011;17637;51.984;21.208;2022-09-09T07:56:42;20.98;;;15.23;;
30948;SDS011;17637;51.984;21.208;2022-09-09T07:59:09;23.75;;;16.13;;
30948;SDS011;17637;51.984;21.208;2022-09-09T08:01:38;19.45;;;13.60;;
30948;SDS011;17637;51.984;21.208;2022-09-09T08:04:08;22.20;;;15.50;;
30948;SDS011;17637;51.984;21.208;2022-09-09T08:06:46;20.65;;;15.25;;
30948;SDS011;17637;51.984;21.208;2022-09-09T08:09:15;26.08;;;17.10;;
30948;SDS011;17637;51.984;21.208;2022-09-09T08:11:43;18.40;;;13.85;;
30948;SDS011;17637;51.984;21.208;2022-09-09T08:14:10;19.52;;;14.00;;
30948;SDS011;17637;51.984;21.208;2022-09-09T08:16:39;29.90;;;18.42;;
30948;SDS011;17637;51.984;21.208;2022-09-09T08:19:08;25.95;;;17.33;;
30948;SDS011;17637;51.984;21.208;2022-09-09T08:21:36;19.15;;;12.75;;
30948;SDS011;17637;51.984;21.208;2022-09-09T08:24:07;20.75;;;14.63;;
30948;SDS011;17637;51.984;21.208;2022-09-09T08:26:37;18.83;;;14.32;;
30948;SDS011;17637;51.984;21.208;2022-09-09T08:29:08;23.88;;;17.52;;
30948;SDS011;17637;51.984;21.208;2022-09-09T08:31:38;22.42;;;16.02;;
30948;SDS011;17637;51.984;21.208;2022-09-09T08:34:09;25.33;;;17.55;;
30948;SDS011;17637;51.984;21.208;2022-09-09T08:36:41;26.60;;;18.10;;
30948;SDS011;17637;51.984;21.208;2022-09-09T08:39:11;24.45;;;17.60;;
30948;SDS011;17637;51.984;21.208;2022-09-09T08:52:55;23.67;;;16.88;;
30948;SDS011;17637;51.984;21.208;2022-09-09T08:58:26;28.42;;;18.88;;
30948;SDS011;17637;51.984;21.208;2022-09-09T09:09:38;33.78;;;23.02;;
30948;SDS011;17637;51.984;21.208;2022-09-09T09:12:41;28.27;;;19.77;;
30948;SDS011;17637;51.984;21.208;2022-09-09T09:17:43;39.65;;;24.92;;
30948;SDS011;17637;51.984;21.208;2022-09-09T09:20:13;39.95;;;24.67;;
30948;SDS011;17637;51.984;21.208;2022-09-09T09:25:18;35.60;;;22.17;;
30948;SDS011;17637;51.984;21.208;2022-09-09T09:30:35;35.70;;;23.50;;
30948;SDS011;17637;51.984;21.208;2022-09-09T09:35:53;37.08;;;22.88;;
30948;SDS011;17637;51.984;21.208;2022-09-09T09:38:22;34.55;;;21.58;;
30948;SDS011;17637;51.984;21.208;2022-09-09T09:41:10;47.28;;;27.95;;
30948;SDS011;17637;51.984;21.208;2022-09-09T09:43:39;35.80;;;24.35;;
30948;SDS011;17637;51.984;21.208;2022-09-09T09:46:22;37.08;;;24.15;;
30948;SDS011;17637;51.984;21.208;2022-09-09T09:48:59;57.03;;;28.42;;
30948;SDS011;17637;51.984;21.208;2022-09-09T09:51:28;44.30;;;26.48;;
30948;SDS011;17637;51.984;21.208;2022-09-09T09:54:05;51.25;;;29.42;;
30948;SDS011;17637;51.984;21.208;2022-09-09T09:56:42;44.05;;;27.58;;
30948;SDS011;17637;51.984;21.208;2022-09-09T09:59:20;38.92;;;25.40;;
30948;SDS011;17637;51.984;21.208;2022-09-09T10:02:16;40.05;;;25.25;;
30948;SDS011;17637;51.984;21.208;2022-09-09T10:04:43;40.70;;;24.35;;
30948;SDS011;17637;51.984;21.208;2022-09-09T10:09:51;34.88;;;23.58;;
30948;SDS011;17637;51.984;21.208;2022-09-09T10:12:24;47.08;;;28.73;;
30948;SDS011;17637;51.984;21.208;2022-09-09T10:22:34;35.42;;;24.75;;
30948;SDS011;17637;51.984;21.208;2022-09-09T10:30:43;45.40;;;27.38;;
30948;SDS011;17637;51.984;21.208;2022-09-09T10:33:18;43.97;;;28.23;;
30948;SDS011;17637;51.984;21.208;2022-09-09T10:36:19;39.72;;;24.55;;
30948;SDS011;17637;51.984;21.208;2022-09-09T10:38:59;49.50;;;29.48;;
30948;SDS011;17637;51.984;21.208;2022-09-09T10:44:17;52.88;;;29.77;;
30948;SDS011;17637;51.984;21.208;2022-09-09T10:52:28;54.73;;;31.63;;
30948;SDS011;17637;51.984;21.208;2022-09-09T10:55:16;56.38;;;32.55;;
30948;SDS011;17637;51.984;21.208;2022-09-09T10:57:47;51.85;;;29.33;;
30948;SDS011;17637;51.984;21.208;2022-09-09T11:00:17;42.22;;;27.38;;
30948;SDS011;17637;51.984;21.208;2022-09-09T11:02:56;51.50;;;30.90;;
30948;SDS011;17637;51.984;21.208;2022-09-09T11:06:12;50.03;;;30.95;;
30948;SDS011;17637;51.984;21.208;2022-09-09T11:08:21;58.63;;;34.20;;
30948;SDS011;17637;51.984;21.208;2022-09-09T11:19:01;53.42;;;30.90;;
30948;SDS011;17637;51.984;21.208;2022-09-09T11:21:36;44.25;;;27.98;;
30948;SDS011;17637;51.984;21.208;2022-09-09T11:24:12;58.28;;;33.03;;
30948;SDS011;17637;51.984;21.208;2022-09-09T11:26:52;52.60;;;28.88;;
30948;SDS011;17637;51.984;21.208;2022-09-09T11:29:38;55.72;;;31.42;;
30948;SDS011;17637;51.984;21.208;2022-09-09T11:41:07;54.05;;;30.95;;
30948;SDS011;17637;51.984;21.208;2022-09-09T11:43:40;45.90;;;28.52;;
30948;SDS011;17637;51.984;21.208;2022-09-09T11:46:09;64.13;;;33.92;;
30948;SDS011;17637;51.984;21.208;2022-09-09T11:48:39;59.42;;;33.20;;
30948;SDS011;17637;51.984;21.208;2022-09-09T11:51:25;47.58;;;27.23;;
30948;SDS011;17637;51.984;21.208;2022-09-09T11:53:55;63.92;;;33.60;;
30948;SDS011;17637;51.984;21.208;2022-09-09T11:56:31;55.63;;;31.50;;
30948;SDS011;17637;51.984;21.208;2022-09-09T11:59:25;56.88;;;33.38;;
30948;SDS011;17637;51.984;21.208;2022-09-09T12:01:59;59.67;;;33.63;;
30948;SDS011;17637;51.984;21.208;2022-09-09T12:04:29;66.10;;;33.33;;
30948;SDS011;17637;51.984;21.208;2022-09-09T12:07:03;75.30;;;35.05;;
30948;SDS011;17637;51.984;21.208;2022-09-09T12:10:37;63.60;;;32.85;;
30948;SDS011;17637;51.984;21.208;2022-09-09T12:12:47;60.03;;;31.42;;
30948;SDS011;17637;51.984;21.208;2022-09-09T12:17:50;55.35;;;30.65;;
30948;SDS011;17637;51.984;21.208;2022-09-09T12:33:24;58.88;;;32.35;;
30948;SDS011;17637;51.984;21.208;2022-09-09T12:35:53;61.42;;;32.75;;
30948;SDS011;17637;51.984;21.208;2022-09-09T12:38:30;69.65;;;35.78;;
30948;SDS011;17637;51.984;21.208;2022-09-09T12:41:00;62.13;;;31.95;;
30948;SDS011;17637;51.984;21.208;2022-09-09T12:43:27;63.00;;;32.92;;
30948;SDS011;17637;51.984;21.208;2022-09-09T12:45:56;54.78;;;31.95;;
30948;SDS011;17637;51.984;21.208;2022-09-09T12:48:34;61.92;;;33.30;;
30948;SDS011;17637;51.984;21.208;2022-09-09T12:51:05;59.38;;;31.52;;
30948;SDS011;17637;51.984;21.208;2022-09-09T12:53:43;59.15;;;31.20;;
30948;SDS011;17637;51.984;21.208;2022-09-09T12:56:19;64.07;;;33.70;;
30948;SDS011;17637;51.984;21.208;2022-09-09T12:58:48;62.05;;;32.78;;
30948;SDS011;17637;51.984;21.208;2022-09-09T13:01:27;66.13;;;35.78;;
30948;SDS011;17637;51.984;21.208;2022-09-09T13:03:59;58.35;;;31.02;;
30948;SDS011;17637;51.984;21.208;2022-09-09T13:06:30;55.10;;;30.50;;
30948;SDS011;17637;51.984;21.208;2022-09-09T13:08:59;51.20;;;30.65;;
30948;SDS011;17637;51.984;21.208;2022-09-09T13:14:02;61.78;;;31.02;;
30948;SDS011;17637;51.984;21.208;2022-09-09T13:16:30;62.35;;;34.08;;
30948;SDS011;17637;51.984;21.208;2022-09-09T13:19:14;58.72;;;30.23;;
30948;SDS011;17637;51.984;21.208;2022-09-09T13:21:42;60.10;;;32.30;;
30948;SDS011;17637;51.984;21.208;2022-09-09T13:24:24;75.90;;;37.25;;
30948;SDS011;17637;51.984;21.208;2022-09-09T13:26:54;69.00;;;35.58;;
30948;SDS011;17637;51.984;21.208;2022-09-09T13:29:28;62.40;;;33.30;;
30948;SDS011;17637;51.984;21.208;2022-09-09T13:32:06;58.20;;;30.90;;
30948;SDS011;17637;51.984;21.208;2022-09-09T13:37:22;65.35;;;34.20;;
30948;SDS011;17637;51.984;21.208;2022-09-09T13:39:54;66.03;;;32.70;;
30948;SDS011;17637;51.984;21.208;2022-09-09T13:42:24;65.20;;;35.10;;
30948;SDS011;17637;51.984;21.208;2022-09-09T13:44:55;69.82;;;35.28;;
30948;SDS011;17637;51.984;21.208;2022-09-09T13:47:29;68.32;;;35.97;;
30948;SDS011;17637;51.984;21.208;2022-09-09T13:50:09;70.85;;;35.22;;
30948;SDS011;17637;51.984;21.208;2022-09-09T13:52:52;78.45;;;38.53;;
30948;SDS011;17637;51.984;21.208;2022-09-09T13:55:21;68.28;;;35.35;;
30948;SDS011;17637;51.984;21.208;2022-09-09T13:57:59;61.28;;;32.97;;
30948;SDS011;17637;51.984;21.208;2022-09-09T14:00:29;58.20;;;32.60;;
30948;SDS011;17637;51.984;21.208;2022-09-09T14:02:57;62.05;;;34.72;;
30948;SDS011;17637;51.984;21.208;2022-09-09T14:05:24;67.18;;;34.70;;
30948;SDS011;17637;51.984;21.208;2022-09-09T14:07:51;57.40;;;34.10;;
30948;SDS011;17637;51.984;21.208;2022-09-09T14:10:18;61.40;;;35.92;;
30948;SDS011;17637;51.984;21.208;2022-09-09T14:12:46;61.15;;;35.85;;
30948;SDS011;17637;51.984;21.208;2022-09-09T14:15:13;52.42;;;33.75;;
30948;SDS011;17637;51.984;21.208;2022-09-09T14:17:40;56.83;;;34.47;;
30948;SDS011;17637;51.984;21.208;2022-09-09T14:20:08;58.20;;;35.83;;
30948;SDS011;17637;51.984;21.208;2022-09-09T14:22:38;56.03;;;31.45;;
30948;SDS011;17637;51.984;21.208;2022-09-09T14:25:08;52.53;;;29.65;;
30948;SDS011;17637;51.984;21.208;2022-09-09T14:27:35;47.50;;;27.70;;
30948;SDS011;17637;51.984;21.208;2022-09-09T14:30:02;43.03;;;26.13;;
30948;SDS011;17637;51.984;21.208;2022-09-09T14:32:29;51.92;;;30.10;;
30948;SDS011;17637;51.984;21.208;2022-09-09T14:34:56;51.40;;;30.10;;
30948;SDS011;17637;51.984;21.208;2022-09-09T14:37:23;45.55;;;27.48;;
30948;SDS011;17637;51.984;21.208;2022-09-09T14:39:50;50.13;;;29.45;;
30948;SDS011;17637;51.984;21.208;2022-09-09T14:42:17;53.67;;;30.92;;
30948;SDS011;17637;51.984;21.208;2022-09-09T14:44:45;57.50;;;33.25;;
30948;SDS011;17637;51.984;21.208;2022-09-09T14:47:12;45.15;;;29.27;;
30948;SDS011;17637;51.984;21.208;2022-09-09T14:49:39;44.65;;;27.23;;
30948;SDS011;17637;51.984;21.208;2022-09-09T14:52:13;46.35;;;27.50;;
30948;SDS011;17637;51.984;21.208;2022-09-09T14:54:40;47.97;;;28.37;;
30948;SDS011;17637;51.984;21.208;2022-09-09T14:57:07;47.40;;;29.05;;
30948;SDS011;17637;51.984;21.208;2022-09-09T14:59:34;47.67;;;27.02;;
30948;SDS011;17637;51.984;21.208;2022-09-09T15:02:01;44.95;;;27.73;;
30948;SDS011;17637;51.984;21.208;2022-09-09T15:04:30;47.85;;;29.75;;
30948;SDS011;17637;51.984;21.208;2022-09-09T15:06:58;47.97;;;29.85;;
30948;SDS011;17637;51.984;21.208;2022-09-09T15:09:25;43.28;;;28.75;;
30948;SDS011;17637;51.984;21.208;2022-09-09T15:11:52;52.40;;;33.28;;
30948;SDS011;17637;51.984;21.208;2022-09-09T15:14:19;47.42;;;30.25;;
30948;SDS011;17637;51.984;21.208;2022-09-09T15:16:50;51.63;;;32.75;;
30948;SDS011;17637;51.984;21.208;2022-09-09T15:19:17;51.90;;;30.90;;
30948;SDS011;17637;51.984;21.208;2022-09-09T15:21:44;47.90;;;29.88;;
30948;SDS011;17637;51.984;21.208;2022-09-09T15:24:11;54.17;;;33.25;;
30948;SDS011;17637;51.984;21.208;2022-09-09T15:26:40;53.97;;;31.75;;
30948;SDS011;17637;51.984;21.208;2022-09-09T15:29:07;54.33;;;31.55;;
30948;SDS011;17637;51.984;21.208;2022-09-09T15:31:35;42.97;;;27.48;;
30948;SDS011;17637;51.984;21.208;2022-09-09T15:34:03;48.13;;;30.95;;
30948;SDS011;17637;51.984;21.208;2022-09-09T15:36:35;49.97;;;29.90;;
30948;SDS011;17637;51.984;21.208;2022-09-09T15:39:06;47.35;;;30.15;;
30948;SDS011;17637;51.984;21.208;2022-09-09T15:41:36;52.03;;;32.00;;
30948;SDS011;17637;51.984;21.208;2022-09-09T15:44:03;47.92;;;27.92;;
30948;SDS011;17637;51.984;21.208;2022-09-09T15:49:07;45.55;;;29.05;;
30948;SDS011;17637;51.984;21.208;2022-09-09T15:51:37;47.28;;;30.52;;
30948;SDS011;17637;51.984;21.208;2022-09-09T15:54:16;48.63;;;32.55;;
30948;SDS011;17637;51.984;21.208;2022-09-09T15:56:45;48.95;;;31.30;;
30948;SDS011;17637;51.984;21.208;2022-09-09T15:59:15;47.65;;;29.42;;
30948;SDS011;17637;51.984;21.208;2022-09-09T16:01:42;45.25;;;29.10;;
30948;SDS011;17637;51.984;21.208;2022-09-09T16:04:10;46.05;;;31.17;;
30948;SDS011;17637;51.984;21.208;2022-09-09T16:06:38;53.00;;;32.25;;
30948;SDS011;17637;51.984;21.208;2022-09-09T16:09:06;45.50;;;29.02;;
30948;SDS011;17637;51.984;21.208;2022-09-09T16:11:35;48.22;;;30.27;;
30948;SDS011;17637;51.984;21.208;2022-09-09T16:14:04;42.97;;;27.58;;
30948;SDS011;17637;51.984;21.208;2022-09-09T16:16:33;52.33;;;32.15;;
30948;SDS011;17637;51.984;21.208;2022-09-09T16:19:05;52.63;;;33.75;;
30948;SDS011;17637;51.984;21.208;2022-09-09T16:21:35;54.17;;;33.92;;
30948;SDS011;17637;51.984;21.208;2022-09-09T16:24:04;51.40;;;33.07;;
30948;SDS011;17637;51.984;21.208;2022-09-09T16:26:34;55.55;;;36.33;;
30948;SDS011;17637;51.984;21.208;2022-09-09T16:29:02;54.85;;;33.90;;
30948;SDS011;17637;51.984;21.208;2022-09-09T16:31:29;50.53;;;35.13;;
30948;SDS011;17637;51.984;21.208;2022-09-09T16:33:58;46.58;;;33.15;;
30948;SDS011;17637;51.984;21.208;2022-09-09T16:36:29;49.65;;;32.58;;
30948;SDS011;17637;51.984;21.208;2022-09-09T16:38:58;49.53;;;33.60;;
30948;SDS011;17637;51.984;21.208;2022-09-09T16:41:27;46.70;;;30.50;;
30948;SDS011;17637;51.984;21.208;2022-09-09T16:43:56;52.70;;;33.90;;
30948;SDS011;17637;51.984;21.208;2022-09-09T16:46:29;46.42;;;29.77;;
30948;SDS011;17637;51.984;21.208;2022-09-09T16:48:58;50.92;;;33.38;;
30948;SDS011;17637;51.984;21.208;2022-09-09T16:51:27;49.92;;;31.88;;
30948;SDS011;17637;51.984;21.208;2022-09-09T16:53:57;54.60;;;32.50;;
30948;SDS011;17637;51.984;21.208;2022-09-09T16:56:26;48.22;;;32.15;;
30948;SDS011;17637;51.984;21.208;2022-09-09T16:58:55;45.40;;;29.02;;
30948;SDS011;17637;51.984;21.208;2022-09-09T17:01:28;49.65;;;32.50;;